Blue River, Canada
Current Conditions -  °F | °C
As of 1:00 PM on Tuesday 25 Nov 2014 (Local Time) from CYRV Reporting Station
Overcast Overcast  
Wind Chill: 36°   Ceiling: 700
Heat Index: 36°   Visibility: 9mi
Dew Point: 34°   Wind: 3mph
Humidity: 93%   Direction: 340°NNW
Pressure: 30.23"   Gusts: NA
Location:  52.11°N, 119.31°W
Report Text: CYRV 252100Z AUTO 34003KT 9SM OVC007 02/01 A3023 RMK SLP255
Loading
Personal Weather Stations






























Interactive Weather Map New forecast layout! Learn more

10-Day Weather Forecast

Advertisements
Track Severe Weather on mobile